createdAt,value
2023-03-19T00:00:44.637Z,12.07
2023-03-19T00:03:11.799Z,11.63
2023-03-19T00:05:38.754Z,11.67
2023-03-19T00:08:06.447Z,11.62
2023-03-19T00:10:33.369Z,11.44
2023-03-19T00:13:00.535Z,11.38
2023-03-19T00:15:27.529Z,11.36
2023-03-19T00:17:56.516Z,11.28
2023-03-19T00:20:23.450Z,11.31
2023-03-19T00:22:50.481Z,11.16
2023-03-19T00:25:17.548Z,11.18
2023-03-19T00:27:44.720Z,11.25
2023-03-19T00:30:12.202Z,11.19
2023-03-19T00:32:39.517Z,11.16
2023-03-19T00:35:08.181Z,11.12
2023-03-19T00:37:35.544Z,11.11
2023-03-19T00:40:04.341Z,11.00
2023-03-19T00:42:32.091Z,11.00
2023-03-19T00:44:59.471Z,10.77
2023-03-19T00:47:27.012Z,10.95
2023-03-19T00:49:53.954Z,10.94
2023-03-19T00:52:21.229Z,10.82
2023-03-19T00:54:48.281Z,10.66
2023-03-19T00:57:15.246Z,10.60
2023-03-19T00:59:42.197Z,10.68
2023-03-19T01:02:09.124Z,10.73
2023-03-19T01:04:36.560Z,10.63
2023-03-19T01:07:03.564Z,10.76
2023-03-19T01:09:30.750Z,10.79
2023-03-19T01:11:57.673Z,10.66
2023-03-19T01:14:25.423Z,10.71
2023-03-19T01:16:52.441Z,10.72
2023-03-19T01:19:20.125Z,10.69
2023-03-19T01:21:47.061Z,10.56
2023-03-19T01:24:18.245Z,10.69
2023-03-19T01:26:48.327Z,10.74
2023-03-19T01:29:32.577Z,10.58
2023-03-19T01:32:08.762Z,10.61
2023-03-19T01:35:14.395Z,10.63
2023-03-19T01:37:41.732Z,10.59
2023-03-19T01:40:13.237Z,10.57
2023-03-19T01:42:58.725Z,10.63
2023-03-19T01:45:43.924Z,10.66
2023-03-19T01:48:51.746Z,10.69
2023-03-19T01:51:28.722Z,10.57
2023-03-19T01:54:07.030Z,10.65
2023-03-19T01:57:12.034Z,10.64
2023-03-19T02:00:01.997Z,10.65
2023-03-19T02:02:50.306Z,10.58
2023-03-19T02:05:28.359Z,10.64
2023-03-19T02:08:06.535Z,10.57
2023-03-19T02:10:34.886Z,10.59
2023-03-19T02:13:02.194Z,10.52
2023-03-19T02:15:29.393Z,10.37
2023-03-19T02:17:56.321Z,10.50
2023-03-19T02:20:37.250Z,10.56
2023-03-19T02:23:23.401Z,10.49
2023-03-19T02:26:04.010Z,10.51
2023-03-19T02:28:33.503Z,10.41
2023-03-19T02:31:01.300Z,10.44
2023-03-19T02:33:29.512Z,10.33
2023-03-19T02:35:57.868Z,10.37
2023-03-19T02:38:27.069Z,10.34
2023-03-19T02:41:08.384Z,10.42
2023-03-19T02:43:38.248Z,10.39
2023-03-19T02:46:12.628Z,10.39
2023-03-19T02:48:41.424Z,10.44
2023-03-19T02:51:08.668Z,10.43
2023-03-19T02:53:36.107Z,10.37
2023-03-19T02:56:03.142Z,10.24
2023-03-19T02:58:30.038Z,10.31
2023-03-19T03:00:57.235Z,10.48
2023-03-19T03:03:24.259Z,10.31
2023-03-19T03:05:51.154Z,10.47
2023-03-19T03:08:18.616Z,10.43
2023-03-19T03:10:45.656Z,10.41
2023-03-19T03:13:12.713Z,10.49
2023-03-19T03:15:40.630Z,10.49
2023-03-19T03:18:07.577Z,10.45
2023-03-19T03:20:34.785Z,10.44
2023-03-19T03:23:02.618Z,10.37
2023-03-19T03:25:30.572Z,10.12
2023-03-19T03:27:57.517Z,10.15
2023-03-19T03:30:25.252Z,10.28
2023-03-19T03:32:52.702Z,10.25
2023-03-19T03:35:22.464Z,10.32
2023-03-19T03:37:50.833Z,10.20
2023-03-19T03:40:18.180Z,10.27
2023-03-19T03:42:45.159Z,10.20
2023-03-19T03:45:12.936Z,10.13
2023-03-19T03:47:42.156Z,10.22
2023-03-19T03:50:11.053Z,10.27
2023-03-19T03:52:39.720Z,10.36
2023-03-19T03:55:07.648Z,10.17
2023-03-19T03:57:34.981Z,10.25
2023-03-19T04:00:02.042Z,10.21
2023-03-19T04:02:29.142Z,10.32
2023-03-19T04:04:56.236Z,10.17
2023-03-19T04:07:23.131Z,10.34
2023-03-19T04:09:58.563Z,10.29
2023-03-19T04:12:26.280Z,10.26
2023-03-19T04:14:53.368Z,10.27
2023-03-19T04:17:20.289Z,10.22
2023-03-19T04:19:47.187Z,10.32
2023-03-19T04:22:14.193Z,10.31
2023-03-19T04:24:41.393Z,10.07
2023-03-19T04:27:08.586Z,10.15
2023-03-19T04:29:37.367Z,10.24
2023-03-19T04:32:04.946Z,10.25
2023-03-19T04:34:31.964Z,10.07
2023-03-19T04:36:58.900Z,10.12
2023-03-19T04:39:26.461Z,10.11
2023-03-19T04:41:53.422Z,10.27
2023-03-19T04:44:25.974Z,10.17
2023-03-19T04:46:54.225Z,10.26
2023-03-19T04:49:22.066Z,10.26
2023-03-19T04:51:50.536Z,10.30
2023-03-19T04:54:17.766Z,10.20
2023-03-19T04:56:44.697Z,10.16
2023-03-19T04:59:11.709Z,10.19
2023-03-19T05:01:38.778Z,10.19
2023-03-19T05:04:09.063Z,10.25
2023-03-19T05:06:38.224Z,10.15
2023-03-19T05:09:07.592Z,10.17
2023-03-19T05:11:34.834Z,10.23
2023-03-19T05:14:09.119Z,10.15
2023-03-19T05:16:54.429Z,10.05
2023-03-19T05:19:22.382Z,10.08
2023-03-19T05:21:49.876Z,10.08
2023-03-19T05:24:22.204Z,10.12
2023-03-19T05:26:49.992Z,10.23
2023-03-19T05:29:19.979Z,10.12
2023-03-19T05:32:10.372Z,10.22
2023-03-19T05:34:37.423Z,10.14
2023-03-19T05:37:04.738Z,10.25
2023-03-19T05:39:31.979Z,10.10
2023-03-19T05:42:03.205Z,10.16
2023-03-19T05:44:31.169Z,10.23
2023-03-19T05:47:11.521Z,10.24
2023-03-19T05:49:41.314Z,10.23
2023-03-19T05:52:09.031Z,9.96
2023-03-19T05:54:36.430Z,9.89
2023-03-19T05:57:18.247Z,9.99
2023-03-19T05:59:52.558Z,10.04
2023-03-19T06:02:29.761Z,9.83
2023-03-19T06:05:12.220Z,9.90
2023-03-19T06:07:39.370Z,10.03
2023-03-19T06:10:13.040Z,10.20
2023-03-19T06:12:40.208Z,9.97
2023-03-19T06:15:35.874Z,9.89
2023-03-19T06:18:15.817Z,9.80
2023-03-19T06:20:43.191Z,9.74
2023-03-19T06:23:10.780Z,9.84
2023-03-19T06:25:37.960Z,9.78
2023-03-19T06:28:06.225Z,9.64
2023-03-19T06:30:38.521Z,9.74
2023-03-19T06:33:22.076Z,9.85
2023-03-19T06:35:49.363Z,9.94
2023-03-19T06:38:16.613Z,9.82
2023-03-19T06:40:45.945Z,9.99
2023-03-19T06:43:13.004Z,9.73
2023-03-19T06:45:40.015Z,9.92
2023-03-19T06:48:07.173Z,9.92
2023-03-19T06:50:34.365Z,10.06
2023-03-19T06:53:02.435Z,9.86
2023-03-19T06:55:30.948Z,10.02
2023-03-19T06:57:57.887Z,10.27
2023-03-19T07:00:25.304Z,10.12
2023-03-19T07:02:52.265Z,10.65
2023-03-19T07:05:19.275Z,10.78
2023-03-19T07:07:46.236Z,10.58
2023-03-19T07:10:13.753Z,11.24
2023-03-19T07:12:40.773Z,11.34
2023-03-19T07:15:08.207Z,11.53
2023-03-19T07:17:35.340Z,11.47
2023-03-19T07:20:02.321Z,11.83
2023-03-19T07:22:29.296Z,11.81
2023-03-19T07:24:56.195Z,11.53
2023-03-19T07:27:24.316Z,11.91
2023-03-19T07:29:51.222Z,12.02
2023-03-19T07:32:18.201Z,11.98
2023-03-19T07:34:45.262Z,12.07
2023-03-19T07:37:12.462Z,12.24
2023-03-19T07:39:39.436Z,12.29
2023-03-19T07:42:06.571Z,12.30
2023-03-19T07:44:33.714Z,12.64
2023-03-19T07:47:00.904Z,12.73
2023-03-19T07:49:27.797Z,12.88
2023-03-19T07:51:54.814Z,12.93
2023-03-19T07:54:23.541Z,12.99
2023-03-19T07:56:50.741Z,12.91
2023-03-19T07:59:17.730Z,12.99
2023-03-19T08:01:44.728Z,13.09
2023-03-19T08:04:11.678Z,13.10
2023-03-19T08:06:38.654Z,13.16
2023-03-19T08:09:05.901Z,13.16
2023-03-19T08:11:32.842Z,13.17
2023-03-19T08:13:59.798Z,13.28
2023-03-19T08:16:27.066Z,13.28
2023-03-19T08:18:54.592Z,13.55
2023-03-19T08:21:21.512Z,13.79
2023-03-19T08:23:48.412Z,13.78
2023-03-19T08:26:16.172Z,13.67
2023-03-19T08:28:43.069Z,13.64
2023-03-19T08:31:12.795Z,13.42
2023-03-19T08:33:39.873Z,13.41
2023-03-19T08:36:13.193Z,13.55
2023-03-19T08:38:40.607Z,13.53
2023-03-19T08:41:09.097Z,13.58
2023-03-19T08:43:37.365Z,13.68
2023-03-19T08:46:05.948Z,13.64
2023-03-19T08:48:32.951Z,13.88
2023-03-19T08:51:02.618Z,13.87
2023-03-19T08:53:30.672Z,13.92
2023-03-19T08:56:00.971Z,13.83
2023-03-19T08:58:28.952Z,14.00
2023-03-19T09:01:10.993Z,14.13
2023-03-19T09:03:39.101Z,14.44
2023-03-19T09:06:09.279Z,14.65
2023-03-19T09:08:37.344Z,15.12
2023-03-19T09:11:05.808Z,15.36
2023-03-19T09:13:33.294Z,15.50
2023-03-19T09:16:01.910Z,15.54
2023-03-19T09:18:29.378Z,15.51
2023-03-19T09:20:56.282Z,15.67
2023-03-19T09:23:23.515Z,15.84
2023-03-19T09:25:51.072Z,15.97
2023-03-19T09:28:18.551Z,15.96
2023-03-19T09:30:50.296Z,15.66
2023-03-19T09:33:19.522Z,15.96
2023-03-19T09:35:52.795Z,16.21
2023-03-19T09:38:23.532Z,16.41
2023-03-19T09:41:21.499Z,16.34
2023-03-19T09:44:29.888Z,16.21
2023-03-19T09:47:27.496Z,16.25
2023-03-19T09:50:02.067Z,16.22
2023-03-19T09:53:12.804Z,16.25
2023-03-19T09:55:51.388Z,16.15
2023-03-19T09:58:25.401Z,16.44
2023-03-19T10:00:54.370Z,16.46
2023-03-19T10:04:08.783Z,16.21
2023-03-19T10:06:41.016Z,15.82
2023-03-19T10:09:32.703Z,15.52
2023-03-19T10:12:23.367Z,15.05
2023-03-19T10:15:02.113Z,15.28
2023-03-19T10:17:41.217Z,15.17
2023-03-19T10:20:20.207Z,15.19
2023-03-19T10:22:57.944Z,15.26
2023-03-19T10:25:28.481Z,15.55
2023-03-19T10:28:14.983Z,15.80
2023-03-19T10:30:43.510Z,16.07
2023-03-19T10:33:24.890Z,16.22
2023-03-19T10:36:04.776Z,16.00
2023-03-19T10:38:33.579Z,15.38
2023-03-19T10:41:22.486Z,15.19
2023-03-19T10:43:55.609Z,15.13
2023-03-19T10:46:22.669Z,14.89
2023-03-19T10:48:49.629Z,14.69
2023-03-19T10:51:26.984Z,14.56
2023-03-19T10:53:56.929Z,14.69
2023-03-19T10:56:30.316Z,14.78
2023-03-19T10:59:06.856Z,14.70
2023-03-19T11:01:42.094Z,14.77
2023-03-19T11:04:18.059Z,14.85
2023-03-19T11:06:50.730Z,14.92
2023-03-19T11:09:40.536Z,14.89
2023-03-19T11:12:08.894Z,15.18
2023-03-19T11:14:39.428Z,15.11
2023-03-19T11:17:28.416Z,15.07
2023-03-19T11:19:58.603Z,15.03
2023-03-19T11:22:32.170Z,14.88
2023-03-19T11:25:19.763Z,14.72
2023-03-19T11:28:09.148Z,14.76
2023-03-19T11:30:52.314Z,14.70
2023-03-19T11:33:56.251Z,14.85
2023-03-19T11:37:20.548Z,14.91
2023-03-19T11:40:11.157Z,15.03
2023-03-19T11:43:07.339Z,15.05
2023-03-19T11:45:57.041Z,14.88
2023-03-19T11:48:41.696Z,14.87
2023-03-19T11:52:02.384Z,15.03
2023-03-19T11:55:04.508Z,15.12
2023-03-19T11:58:08.358Z,15.25
2023-03-19T12:00:46.865Z,15.26
2023-03-19T12:03:53.658Z,15.37
2023-03-19T12:07:16.776Z,15.19
2023-03-19T12:09:49.502Z,15.26
2023-03-19T12:12:59.852Z,15.11
2023-03-19T12:15:43.641Z,15.17
2023-03-19T12:18:27.431Z,15.32
2023-03-19T12:21:32.836Z,15.45
2023-03-19T12:24:38.008Z,15.84
2023-03-19T12:27:41.408Z,16.17
2023-03-19T12:30:33.748Z,16.23
2023-03-19T12:33:42.777Z,16.27
2023-03-19T12:36:17.567Z,16.12
2023-03-19T12:38:51.652Z,15.96
2023-03-19T12:41:24.697Z,15.69
2023-03-19T12:44:33.431Z,15.67
2023-03-19T12:47:09.018Z,15.56
2023-03-19T12:49:53.852Z,15.30
2023-03-19T12:52:34.141Z,15.34
2023-03-19T12:55:07.318Z,15.19
2023-03-19T12:57:51.281Z,15.36
2023-03-19T13:00:31.108Z,15.36
2023-03-19T13:03:22.536Z,15.32
2023-03-19T13:06:01.690Z,15.44
2023-03-19T13:09:09.126Z,15.60
2023-03-19T13:11:59.873Z,15.97
2023-03-19T13:14:57.978Z,15.94
2023-03-19T13:18:01.417Z,16.22
2023-03-19T13:21:06.021Z,16.23
2023-03-19T13:23:37.293Z,16.08
2023-03-19T13:26:10.615Z,16.04
2023-03-19T13:28:54.579Z,15.97
2023-03-19T13:31:25.582Z,16.05
2023-03-19T13:34:04.737Z,16.24
2023-03-19T13:36:39.283Z,16.42
2023-03-19T13:39:21.193Z,16.51
2023-03-19T13:41:54.927Z,16.55
2023-03-19T13:44:49.551Z,16.39
2023-03-19T13:47:32.484Z,16.46
2023-03-19T13:50:25.117Z,16.29
2023-03-19T13:53:15.046Z,16.24
2023-03-19T13:55:59.578Z,16.24
2023-03-19T13:58:52.020Z,16.12
2023-03-19T14:01:25.629Z,16.49
2023-03-19T14:04:00.352Z,16.59
2023-03-19T14:06:40.223Z,16.87
2023-03-19T14:09:50.611Z,16.83
2023-03-19T14:12:20.873Z,16.77
2023-03-19T14:15:03.533Z,16.61
2023-03-19T14:17:48.218Z,16.48
2023-03-19T14:20:17.279Z,16.44
2023-03-19T14:23:11.383Z,16.35
2023-03-19T14:26:01.354Z,16.27
2023-03-19T14:28:49.883Z,16.20
2023-03-19T14:31:27.006Z,16.19
2023-03-19T14:34:11.958Z,16.07
2023-03-19T14:36:45.703Z,16.04
2023-03-19T14:39:24.457Z,15.95
2023-03-19T14:42:25.488Z,16.09
2023-03-19T14:45:36.111Z,16.03
2023-03-19T14:48:21.158Z,16.14
2023-03-19T14:51:26.887Z,16.23
2023-03-19T14:54:07.008Z,16.30
2023-03-19T14:56:36.164Z,16.28
2023-03-19T14:59:07.817Z,16.30
2023-03-19T15:01:41.566Z,16.38
2023-03-19T15:04:14.428Z,16.35
2023-03-19T15:06:46.636Z,16.44
2023-03-19T15:09:20.986Z,16.56
2023-03-19T15:11:59.629Z,16.66
2023-03-19T15:14:53.706Z,16.84
2023-03-19T15:17:26.047Z,16.87
2023-03-19T15:19:55.766Z,16.78
2023-03-19T15:22:34.713Z,16.74
2023-03-19T15:25:13.051Z,16.76
2023-03-19T15:27:41.171Z,16.69
2023-03-19T15:30:29.187Z,16.61
2023-03-19T15:33:10.517Z,16.53
2023-03-19T15:35:39.684Z,16.49
2023-03-19T15:38:11.214Z,16.36
2023-03-19T15:40:41.103Z,16.44
2023-03-19T15:43:12.714Z,16.43
2023-03-19T15:45:42.914Z,16.42
2023-03-19T15:48:34.861Z,16.44
2023-03-19T15:51:05.094Z,16.26
2023-03-19T15:53:34.377Z,16.30
2023-03-19T15:56:03.927Z,16.27
2023-03-19T15:58:38.289Z,16.18
2023-03-19T16:01:09.498Z,16.12
2023-03-19T16:03:43.891Z,16.09
2023-03-19T16:06:24.460Z,16.13
2023-03-19T16:08:55.455Z,15.96
2023-03-19T16:11:38.814Z,16.00
2023-03-19T16:14:42.174Z,15.93
2023-03-19T16:17:17.810Z,15.79
2023-03-19T16:19:50.758Z,15.86
2023-03-19T16:22:23.092Z,15.82
2023-03-19T16:24:51.917Z,15.89
2023-03-19T16:27:38.581Z,15.80
2023-03-19T16:30:22.497Z,15.88
2023-03-19T16:33:06.707Z,15.88
2023-03-19T16:35:36.667Z,16.02
2023-03-19T16:38:24.177Z,16.17
2023-03-19T16:41:19.295Z,16.30
2023-03-19T16:43:47.376Z,16.44
2023-03-19T16:46:16.728Z,16.58
2023-03-19T16:48:44.766Z,16.57
2023-03-19T16:51:18.457Z,16.77
2023-03-19T16:53:47.312Z,16.65
2023-03-19T16:56:15.577Z,16.47
2023-03-19T16:58:46.263Z,16.24
2023-03-19T17:01:22.260Z,16.39
2023-03-19T17:03:50.349Z,16.49
2023-03-19T17:06:18.630Z,16.58
2023-03-19T17:08:45.653Z,16.66
2023-03-19T17:11:25.451Z,16.68
2023-03-19T17:13:54.508Z,16.73
2023-03-19T17:16:21.430Z,16.95
2023-03-19T17:18:48.480Z,17.08
2023-03-19T17:21:31.604Z,17.45
2023-03-19T17:24:08.009Z,17.42
2023-03-19T17:26:35.104Z,17.56
2023-03-19T17:29:02.047Z,17.65
2023-03-19T17:31:31.848Z,17.59
2023-03-19T17:34:12.296Z,17.44
2023-03-19T17:36:39.862Z,17.14
2023-03-19T17:39:07.678Z,17.04
2023-03-19T17:41:35.539Z,17.06
2023-03-19T17:44:05.080Z,17.32
2023-03-19T17:46:55.839Z,17.33
2023-03-19T17:49:32.623Z,17.38
2023-03-19T17:51:59.844Z,17.35
2023-03-19T17:54:27.872Z,17.44
2023-03-19T17:56:55.798Z,17.21
2023-03-19T17:59:23.247Z,16.85
2023-03-19T18:01:50.574Z,16.53
2023-03-19T18:04:20.358Z,16.23
2023-03-19T18:06:57.882Z,15.96
2023-03-19T18:09:32.748Z,15.74
2023-03-19T18:11:59.854Z,15.50
2023-03-19T18:14:26.762Z,15.20
2023-03-19T18:16:53.728Z,15.04
2023-03-19T18:19:36.712Z,15.10
2023-03-19T18:22:16.480Z,14.76
2023-03-19T18:24:51.349Z,14.82
2023-03-19T18:27:18.353Z,14.70
2023-03-19T18:29:45.501Z,14.48
2023-03-19T18:32:20.004Z,14.36
2023-03-19T18:34:54.585Z,14.40
2023-03-19T18:37:21.633Z,14.27
2023-03-19T18:39:49.883Z,14.19
2023-03-19T18:42:20.106Z,14.14
2023-03-19T18:44:47.073Z,14.01
2023-03-19T18:47:16.402Z,13.74
2023-03-19T18:49:43.919Z,13.67
2023-03-19T18:52:17.869Z,13.51
2023-03-19T18:54:46.878Z,13.62
2023-03-19T18:57:14.646Z,13.30
2023-03-19T18:59:41.958Z,13.43
2023-03-19T19:02:33.872Z,13.65
2023-03-19T19:05:18.343Z,13.46
2023-03-19T19:07:45.785Z,13.38
2023-03-19T19:10:12.998Z,13.41
2023-03-19T19:12:42.810Z,13.27
2023-03-19T19:15:19.111Z,13.24
2023-03-19T19:17:46.931Z,13.16
2023-03-19T19:20:22.787Z,13.26
2023-03-19T19:22:54.007Z,13.14
2023-03-19T19:25:28.916Z,13.12
2023-03-19T19:28:05.822Z,13.10
2023-03-19T19:30:33.380Z,13.03
2023-03-19T19:33:00.803Z,12.97
2023-03-19T19:35:28.516Z,12.84
2023-03-19T19:37:56.385Z,13.01
2023-03-19T19:40:29.897Z,12.97
2023-03-19T19:42:57.454Z,12.86
2023-03-19T19:45:36.865Z,12.93
2023-03-19T19:48:12.242Z,12.84
2023-03-19T19:50:39.222Z,12.86
2023-03-19T19:53:06.599Z,12.78
2023-03-19T19:55:34.006Z,12.90
2023-03-19T19:58:02.298Z,12.76
2023-03-19T20:00:31.347Z,12.82
2023-03-19T20:03:00.512Z,12.75
2023-03-19T20:05:32.149Z,12.99
2023-03-19T20:08:02.768Z,12.88
2023-03-19T20:10:31.011Z,12.95
2023-03-19T20:13:01.515Z,12.93
2023-03-19T20:15:35.730Z,12.99
2023-03-19T20:18:05.910Z,12.79
2023-03-19T20:20:33.951Z,12.92
2023-03-19T20:23:02.173Z,12.93
2023-03-19T20:25:34.812Z,12.70
2023-03-19T20:28:03.465Z,12.60
2023-03-19T20:30:35.347Z,12.60
2023-03-19T20:33:02.390Z,12.55
2023-03-19T20:35:36.049Z,12.54
2023-03-19T20:38:05.815Z,12.54
2023-03-19T20:40:42.920Z,12.59
2023-03-19T20:43:29.261Z,12.54
2023-03-19T20:45:57.952Z,12.47
2023-03-19T20:48:26.515Z,12.18
2023-03-19T20:50:54.976Z,12.22
2023-03-19T20:53:22.297Z,12.00
2023-03-19T20:55:50.045Z,11.98
2023-03-19T20:58:28.845Z,11.83
2023-03-19T21:00:57.871Z,11.84
2023-03-19T21:03:31.251Z,11.78
2023-03-19T21:06:15.341Z,11.81
2023-03-19T21:08:44.882Z,11.63
2023-03-19T21:11:39.795Z,11.59
2023-03-19T21:14:06.707Z,11.48
2023-03-19T21:16:34.033Z,11.54
2023-03-19T21:19:01.537Z,11.69
2023-03-19T21:21:34.407Z,11.79
2023-03-19T21:24:15.536Z,12.03
2023-03-19T21:26:44.223Z,11.93
2023-03-19T21:29:30.973Z,12.00
2023-03-19T21:31:58.077Z,11.95
2023-03-19T21:34:25.234Z,11.80
2023-03-19T21:36:52.386Z,11.96
2023-03-19T21:39:19.516Z,11.94
2023-03-19T21:41:46.793Z,12.00
2023-03-19T21:44:18.104Z,12.06
2023-03-19T21:46:46.998Z,12.30
2023-03-19T21:49:14.941Z,12.45
2023-03-19T21:51:44.608Z,12.56
2023-03-19T21:54:11.664Z,12.54
2023-03-19T21:56:45.375Z,12.59
2023-03-19T21:59:19.920Z,12.43
2023-03-19T22:01:47.269Z,12.30
2023-03-19T22:04:14.253Z,12.30
2023-03-19T22:06:42.340Z,12.37
2023-03-19T22:09:09.263Z,12.15
2023-03-19T22:11:38.847Z,12.31
2023-03-19T22:14:19.374Z,12.20
2023-03-19T22:16:47.324Z,12.08
2023-03-19T22:19:18.258Z,12.12
2023-03-19T22:21:46.438Z,12.03
2023-03-19T22:24:13.541Z,11.85
2023-03-19T22:26:43.116Z,11.70
2023-03-19T22:29:23.491Z,11.50
2023-03-19T22:31:52.240Z,11.51
2023-03-19T22:34:22.172Z,11.53
2023-03-19T22:36:49.745Z,11.63
2023-03-19T22:39:16.845Z,11.55
2023-03-19T22:41:48.767Z,11.52
2023-03-19T22:44:28.207Z,11.57
2023-03-19T22:46:57.681Z,11.59
2023-03-19T22:49:25.423Z,11.48
2023-03-19T22:51:52.519Z,11.37
2023-03-19T22:54:19.482Z,11.30
2023-03-19T22:56:46.385Z,11.51
2023-03-19T22:59:14.070Z,11.57
2023-03-19T23:01:46.641Z,11.75
2023-03-19T23:04:30.074Z,11.90
2023-03-19T23:06:58.641Z,11.97
2023-03-19T23:09:29.471Z,11.83
2023-03-19T23:11:57.865Z,11.62
2023-03-19T23:14:30.075Z,11.44
2023-03-19T23:17:06.510Z,11.26
2023-03-19T23:19:35.907Z,11.13
2023-03-19T23:22:05.317Z,11.01
2023-03-19T23:24:33.542Z,10.94
2023-03-19T23:27:02.377Z,10.83
2023-03-19T23:29:35.375Z,10.81
2023-03-19T23:32:03.493Z,10.82
2023-03-19T23:34:30.445Z,10.80
2023-03-19T23:36:58.021Z,10.87
2023-03-19T23:39:29.352Z,10.91
2023-03-19T23:41:58.581Z,10.88
2023-03-19T23:44:27.192Z,10.85
2023-03-19T23:46:54.448Z,10.89
2023-03-19T23:49:29.660Z,10.78
2023-03-19T23:51:57.502Z,10.91
2023-03-19T23:54:30.395Z,10.86
2023-03-19T23:57:01.022Z,10.83
2023-03-19T23:59:32.776Z,10.84
